Time;durP1;ratioP1;P1;durP2;ratioP2;P2;SDS_P1;SDS_P2;PMS_P1;PMS_P2;Temp;Humidity;BMP_temperature;BMP_pressure;BME280_temperature;BME280_humidity;BME280_pressure;Samples;Min_cycle;Max_cycle;Signal;HPM_P1;HPM_P2
2022/01/24 00:00:52;;;;;;;29.95;18.80;;;8.80;70.20;;;;;;5093558;28;20040;-63
2022/01/24 00:03:18;;;;;;;36.90;21.75;;;8.80;69.90;;;;;;5094257;28;20024;-63
2022/01/24 00:05:43;;;;;;;36.47;23.48;;;8.80;69.60;;;;;;5094245;28;20024;-63
2022/01/24 00:08:09;;;;;;;39.22;23.65;;;8.80;69.40;;;;;;5094291;28;20106;-64
2022/01/24 00:10:37;;;;;;;36.05;23.25;;;8.80;69.20;;;;;;5090756;28;20123;-64
2022/01/24 00:18:26;;;;;;;37.88;22.38;;;8.80;69.00;;;;;;5094245;28;20032;-64
2022/01/24 00:26:44;;;;;;;34.55;22.27;;;8.80;68.90;;;;;;5075120;28;20116;-63
2022/01/24 00:29:05;;;;;;;30.58;19.67;;;8.70;68.60;;;;;;5096923;28;20115;-63
2022/01/24 00:31:31;;;;;;;28.92;19.13;;;8.70;68.40;;;;;;5097671;28;20064;-63
2022/01/24 00:33:56;;;;;;;32.72;20.33;;;8.80;68.40;;;;;;5098552;28;20035;-63
2022/01/24 00:36:22;;;;;;;26.20;16.98;;;8.80;68.30;;;;;;5097744;28;20360;-63
2022/01/24 00:38:47;;;;;;;29.05;18.15;;;8.80;68.90;;;;;;5097018;28;20084;-63
2022/01/24 00:41:16;;;;;;;29.08;19.13;;;8.70;68.10;;;;;;5097279;28;20444;-63
2022/01/24 00:46:44;;;;;;;29.48;18.75;;;8.70;67.90;;;;;;5055776;28;20100;-63
2022/01/24 00:49:26;;;;;;;26.98;17.25;;;8.70;67.70;;;;;;5087415;28;20035;-63
2022/01/24 00:54:47;;;;;;;24.67;14.60;;;8.70;67.60;;;;;;5096737;28;20124;-63
2022/01/24 00:57:13;;;;;;;25.08;14.98;;;8.70;67.60;;;;;;5097153;28;20039;-63
2022/01/24 00:59:39;;;;;;;28.80;17.58;;;8.70;67.40;;;;;;5096737;28;20032;-63
2022/01/24 01:02:05;;;;;;;25.98;16.33;;;8.70;67.40;;;;;;5096413;28;20376;-63
2022/01/24 01:05:05;;;;;;;24.88;14.68;;;8.70;67.30;;;;;;5096671;28;20169;-63
2022/01/24 01:07:36;;;;;;;29.45;18.48;;;8.70;67.30;;;;;;5095968;28;20498;-63
2022/01/24 01:18:16;;;;;;;27.90;16.95;;;8.70;67.30;;;;;;5096572;28;20036;-63
2022/01/24 01:23:24;;;;;;;25.48;15.90;;;8.70;67.20;;;;;;5096115;28;20093;-63
2022/01/24 01:25:51;;;;;;;30.40;18.27;;;8.70;67.30;;;;;;5096320;28;20028;-63
2022/01/24 01:28:18;;;;;;;28.48;18.20;;;8.70;67.30;;;;;;5085566;28;20060;-63
2022/01/24 01:30:47;;;;;;;30.20;18.00;;;8.70;67.30;;;;;;5092700;28;20389;-63
2022/01/24 01:52:23;;;;;;;33.92;19.08;;;8.70;67.20;;;;;;5095760;28;20107;-63
2022/01/24 01:55:12;;;;;;;26.88;15.80;;;8.60;67.50;;;;;;5095454;28;20508;-63
2022/01/24 01:57:38;;;;;;;28.33;16.30;;;8.60;67.50;;;;;;5095076;28;20092;-64
2022/01/24 02:00:09;;;;;;;29.45;17.85;;;8.60;67.40;;;;;;5095012;28;20032;-63
2022/01/24 02:02:35;;;;;;;25.90;15.82;;;8.60;67.40;;;;;;5095167;28;20080;-63
2022/01/24 02:05:00;;;;;;;25.42;16.13;;;8.60;67.30;;;;;;5095267;28;20111;-63
2022/01/24 02:07:26;;;;;;;25.00;15.25;;;8.60;67.30;;;;;;5095516;28;20072;-64
2022/01/24 02:09:52;;;;;;;24.38;15.45;;;8.50;67.10;;;;;;5095490;28;20039;-63
2022/01/24 02:12:20;;;;;;;24.90;14.90;;;8.60;67.10;;;;;;5094242;28;20024;-63
2022/01/24 02:14:52;;;;;;;23.48;15.30;;;8.60;67.10;;;;;;5095332;28;20036;-63
2022/01/24 02:17:27;;;;;;;;;;;8.60;67.10;;;;;;5091263;28;20032;-63
2022/01/24 02:22:47;;;;;;;24.38;14.73;;;8.50;67.30;;;;;;5048583;28;20036;-63
2022/01/24 02:25:25;;;;;;;25.27;15.23;;;8.50;67.20;;;;;;5094290;28;20043;-63
2022/01/24 02:28:01;;;;;;;26.08;15.82;;;8.50;67.20;;;;;;5093694;28;20032;-63
2022/01/24 02:30:56;;;;;;;25.45;15.40;;;8.50;67.30;;;;;;5094727;28;20052;-63
2022/01/24 02:33:22;;;;;;;26.65;16.08;;;8.50;67.40;;;;;;5095115;28;20020;-63
2022/01/24 02:35:48;;;;;;;22.85;14.77;;;8.50;67.40;;;;;;5094773;28;20448;-64
2022/01/24 02:38:34;;;;;;;26.00;15.35;;;8.50;67.50;;;;;;5094942;28;20111;-63
2022/01/24 02:48:54;;;;;;;24.48;16.33;;;8.50;67.40;;;;;;5094617;28;20089;-64
2022/01/24 02:53:48;;;;;;;24.40;15.55;;;8.50;67.90;;;;;;5094003;28;20031;-63
2022/01/24 02:56:14;;;;;;;27.30;16.25;;;8.50;67.20;;;;;;5093414;28;20096;-63
2022/01/24 02:58:40;;;;;;;25.30;16.60;;;8.50;67.20;;;;;;5094611;28;20031;-63
2022/01/24 03:01:07;;;;;;;23.60;15.40;;;8.50;67.20;;;;;;5094130;28;20141;-63
2022/01/24 03:03:37;;;;;;;24.75;14.77;;;8.50;67.20;;;;;;5094856;28;20032;-63
2022/01/24 03:06:05;;;;;;;27.05;16.02;;;8.50;67.00;;;;;;5094500;28;20054;-63
2022/01/24 03:08:31;;;;;;;26.33;15.65;;;8.50;67.00;;;;;;5094356;28;20364;-63
2022/01/24 03:10:59;;;;;;;26.70;15.50;;;8.50;67.00;;;;;;5093045;28;20028;-63
2022/01/24 03:15:52;;;;;;;25.38;16.13;;;8.50;67.10;;;;;;5094721;28;20040;-64
2022/01/24 03:18:19;;;;;;;26.20;15.57;;;8.50;67.10;;;;;;5094185;28;20035;-63
2022/01/24 03:20:45;;;;;;;25.55;16.48;;;8.50;67.20;;;;;;5093598;28;20092;-63
2022/01/24 03:23:12;;;;;;;28.13;16.38;;;8.50;67.40;;;;;;5094220;28;20035;-63
2022/01/24 03:25:38;;;;;;;25.58;15.25;;;8.50;67.50;;;;;;5093973;28;20032;-63
2022/01/24 03:28:04;;;;;;;26.10;15.60;;;8.40;67.60;;;;;;5093287;28;20111;-64
2022/01/24 03:30:32;;;;;;;25.85;15.70;;;8.40;67.70;;;;;;5093787;28;20076;-63
2022/01/24 03:32:57;;;;;;;26.38;16.02;;;8.40;67.70;;;;;;5093363;28;20028;-64
2022/01/24 03:35:23;;;;;;;26.88;16.17;;;8.50;67.90;;;;;;5094774;28;20432;-64
2022/01/24 03:37:50;;;;;;;24.30;15.43;;;8.40;67.80;;;;;;5094026;28;20044;-63
2022/01/24 03:40:15;;;;;;;25.70;15.90;;;8.40;68.00;;;;;;5093354;28;20110;-64
2022/01/24 03:42:41;;;;;;;26.77;16.52;;;8.40;68.10;;;;;;5092758;28;20123;-63
2022/01/24 03:45:10;;;;;;;28.02;17.75;;;8.40;68.10;;;;;;5094374;28;20028;-63
2022/01/24 03:50:07;;;;;;;29.10;16.80;;;8.40;68.20;;;;;;5094184;28;20039;-63
2022/01/24 03:52:33;;;;;;;26.25;15.88;;;8.40;68.30;;;;;;5093537;28;20028;-63
2022/01/24 03:55:00;;;;;;;29.27;17.58;;;8.40;68.20;;;;;;5094192;28;20024;-63
2022/01/24 03:57:26;;;;;;;30.65;17.65;;;8.40;68.20;;;;;;5092390;28;20444;-63
2022/01/24 03:59:52;;;;;;;26.00;17.38;;;8.30;68.20;;;;;;5098051;28;20105;-63
2022/01/24 04:02:21;;;;;;;28.25;17.02;;;8.40;68.20;;;;;;5097446;28;20429;-63
2022/01/24 04:04:47;;;;;;;28.75;17.38;;;8.40;68.10;;;;;;5097966;28;20298;-64
2022/01/24 04:07:13;;;;;;;25.23;16.65;;;8.40;68.10;;;;;;5097324;28;20020;-63
2022/01/24 04:09:40;;;;;;;30.02;18.02;;;8.40;68.00;;;;;;5097782;28;20027;-63
2022/01/24 04:12:08;;;;;;;25.73;16.35;;;8.40;68.10;;;;;;5096223;28;20036;-63
2022/01/24 04:22:10;;;;;;;26.33;17.23;;;8.30;68.30;;;;;;5097161;28;20020;-63
2022/01/24 04:24:36;;;;;;;29.15;17.60;;;8.30;68.40;;;;;;5097355;28;20036;-63
2022/01/24 04:27:02;;;;;;;26.65;16.58;;;8.30;68.60;;;;;;5096358;28;20086;-63
2022/01/24 04:29:28;;;;;;;30.50;18.05;;;8.30;68.60;;;;;;5097085;28;20380;-63
2022/01/24 04:31:53;;;;;;;29.10;17.98;;;8.30;68.60;;;;;;5097250;28;20020;-63
2022/01/24 04:34:19;;;;;;;29.25;19.15;;;8.30;68.60;;;;;;5097047;28;20349;-64
2022/01/24 04:36:45;;;;;;;26.98;17.63;;;8.30;68.50;;;;;;5097343;28;20464;-64
2022/01/24 04:39:11;;;;;;;28.42;17.92;;;8.30;68.40;;;;;;5096895;28;20021;-64
2022/01/24 04:41:40;;;;;;;29.25;17.35;;;8.30;68.40;;;;;;5097264;28;20028;-63
2022/01/24 04:44:45;;;;;;;28.38;18.33;;;8.30;68.50;;;;;;5096851;28;20035;-64
2022/01/24 04:55:08;;;;;;;29.60;17.65;;;8.20;68.50;;;;;;5096824;28;20077;-64
2022/01/24 04:57:34;;;;;;;29.38;17.02;;;8.20;68.50;;;;;;5096917;28;20028;-64
2022/01/24 05:00:01;;;;;;;24.27;15.43;;;8.20;68.50;;;;;;5096991;28;20163;-64
2022/01/24 05:02:27;;;;;;;26.98;16.70;;;8.20;68.50;;;;;;5096394;28;20024;-63
2022/01/24 05:04:56;;;;;;;26.45;16.52;;;8.20;68.40;;;;;;5096622;28;20031;-64
2022/01/24 05:07:21;;;;;;;24.02;15.45;;;8.20;68.50;;;;;;5096578;28;20437;-63
2022/01/24 05:21:11;;;;;;;27.23;16.85;;;8.20;68.50;;;;;;5096720;28;20431;-63
2022/01/24 05:23:36;;;;;;;24.20;14.88;;;8.20;68.50;;;;;;5095764;28;20042;-63
2022/01/24 05:26:04;;;;;;;25.00;16.00;;;8.10;68.50;;;;;;5096366;28;20040;-63
2022/01/24 05:28:31;;;;;;;23.60;14.90;;;8.10;68.50;;;;;;5094331;28;20036;-63
2022/01/24 05:31:01;;;;;;;21.77;13.32;;;8.10;68.50;;;;;;5091871;28;20381;-64
2022/01/24 05:33:28;;;;;;;25.60;15.60;;;8.10;68.60;;;;;;5095599;28;20107;-63
2022/01/24 05:35:53;;;;;;;25.10;14.65;;;8.10;68.50;;;;;;5095634;28;20047;-64
2022/01/24 05:38:21;;;;;;;23.77;15.38;;;8.10;68.60;;;;;;5095835;28;20341;-64
2022/01/24 05:40:48;;;;;;;25.13;16.05;;;8.10;68.50;;;;;;5096037;28;20051;-64
2022/01/24 05:43:14;;;;;;;23.58;15.52;;;8.10;68.50;;;;;;5095956;28;20120;-64
2022/01/24 05:45:41;;;;;;;22.05;14.30;;;8.00;68.50;;;;;;5096392;28;20141;-64
2022/01/24 05:48:07;;;;;;;24.42;14.80;;;8.00;68.60;;;;;;5095403;28;20393;-64
2022/01/24 05:50:33;;;;;;;24.30;15.82;;;8.00;68.70;;;;;;5095979;28;20058;-64
2022/01/24 05:52:58;;;;;;;22.20;14.07;;;8.00;69.40;;;;;;5096243;28;20119;-64
2022/01/24 05:55:24;;;;;;;20.70;13.93;;;8.00;68.70;;;;;;5095911;28;20085;-63
2022/01/24 05:57:53;;;;;;;21.13;12.82;;;8.00;68.70;;;;;;5095927;28;20028;-63
2022/01/24 06:00:19;;;;;;;21.77;13.43;;;7.90;68.50;;;;;;5094983;28;20402;-64
2022/01/24 06:02:45;;;;;;;20.05;13.00;;;8.00;68.60;;;;;;5094241;28;20043;-64
2022/01/24 06:05:11;;;;;;;20.27;12.82;;;8.00;68.60;;;;;;5095451;28;20119;-64
2022/01/24 06:07:36;;;;;;;22.08;12.85;;;7.90;68.50;;;;;;5095983;28;20310;-64
2022/01/24 06:10:03;;;;;;;21.73;13.07;;;7.90;68.50;;;;;;5095138;28;20032;-63
2022/01/24 06:12:29;;;;;;;23.02;13.52;;;7.90;68.50;;;;;;5095758;28;20028;-64
2022/01/24 06:14:54;;;;;;;22.05;14.07;;;7.90;69.20;;;;;;5095244;28;20324;-64
2022/01/24 06:17:20;;;;;;;23.13;14.18;;;7.90;68.60;;;;;;5094793;28;20478;-63
2022/01/24 06:19:45;;;;;;;21.38;14.55;;;7.90;68.60;;;;;;5095383;28;20035;-63
2022/01/24 06:22:11;;;;;;;22.17;14.70;;;7.90;68.70;;;;;;5093469;28;20081;-62
2022/01/24 06:24:37;;;;;;;19.98;12.68;;;7.90;68.80;;;;;;5095757;28;20036;-63
2022/01/24 06:27:03;;;;;;;21.17;13.43;;;7.90;68.80;;;;;;5095280;28;20043;-62
2022/01/24 06:29:28;;;;;;;22.73;14.68;;;7.90;68.90;;;;;;5093829;28;20043;-62
2022/01/24 06:31:54;;;;;;;21.63;13.48;;;7.90;69.00;;;;;;5094895;28;20028;-62
2022/01/24 06:34:20;;;;;;;22.15;14.10;;;7.90;69.10;;;;;;5095634;28;20036;-62
2022/01/24 06:36:46;;;;;;;21.08;14.23;;;7.90;69.10;;;;;;5095942;28;20086;-62
2022/01/24 06:39:13;;;;;;;21.73;13.53;;;7.90;69.20;;;;;;5095076;28;20409;-62
2022/01/24 06:41:41;;;;;;;21.50;13.68;;;7.80;69.20;;;;;;5095477;28;20032;-61
2022/01/24 06:44:07;;;;;;;22.37;14.03;;;7.80;69.90;;;;;;5094967;28;20148;-62
2022/01/24 06:46:32;;;;;;;20.88;13.60;;;7.80;69.30;;;;;;5093935;28;20139;-62
2022/01/24 06:48:58;;;;;;;20.35;13.75;;;7.80;69.30;;;;;;5077008;28;20032;-62
2022/01/24 06:51:24;;;;;;;24.38;14.40;;;7.80;69.30;;;;;;5093745;28;20349;-61
2022/01/24 06:53:51;;;;;;;20.70;14.23;;;7.80;69.30;;;;;;5095195;28;20024;-61
2022/01/24 06:56:17;;;;;;;21.42;13.98;;;7.80;69.30;;;;;;5095048;28;20119;-61
2022/01/24 06:58:43;;;;;;;21.43;13.97;;;7.80;69.30;;;;;;5094574;28;20115;-61
2022/01/24 07:01:08;;;;;;;23.03;15.23;;;7.80;69.40;;;;;;5094198;28;20054;-61
2022/01/24 07:03:34;;;;;;;24.42;13.93;;;7.80;69.40;;;;;;5094821;28;20443;-61
2022/01/24 07:06:01;;;;;;;20.05;12.63;;;7.80;69.50;;;;;;5094685;28;20028;-61
2022/01/24 07:08:26;;;;;;;23.02;12.90;;;7.80;69.40;;;;;;5093905;28;20115;-62
2022/01/24 07:10:52;;;;;;;21.80;13.20;;;7.90;69.30;;;;;;5094491;28;20056;-61
2022/01/24 07:13:21;;;;;;;21.47;14.33;;;7.90;69.10;;;;;;5095136;28;20034;-61
2022/01/24 07:15:55;;;;;;;19.17;12.00;;;8.00;68.90;;;;;;5093876;28;20036;-61
2022/01/24 07:20:46;;;;;;;16.65;11.60;;;8.00;68.70;;;;;;5094572;28;20047;-62
2022/01/24 07:23:12;;;;;;;20.92;12.57;;;8.00;68.60;;;;;;5092866;28;20031;-64
2022/01/24 07:25:38;;;;;;;16.98;9.95;;;8.00;68.50;;;;;;5092810;28;20039;-64
2022/01/24 07:28:03;;;;;;;17.85;10.75;;;8.00;68.30;;;;;;5092720;28;20024;-64
2022/01/24 07:30:29;;;;;;;17.30;11.82;;;8.00;68.20;;;;;;5094332;28;20044;-64
2022/01/24 07:32:54;;;;;;;18.15;12.25;;;8.00;68.20;;;;;;5092662;28;20036;-65
2022/01/24 07:35:20;;;;;;;17.73;11.88;;;8.00;68.20;;;;;;5102128;28;20035;-65
2022/01/24 07:37:46;;;;;;;18.15;11.65;;;8.00;68.20;;;;;;5093489;28;20020;-65
2022/01/24 07:40:13;;;;;;;18.67;12.68;;;8.00;68.10;;;;;;5093474;28;20067;-64
2022/01/24 07:45:16;;;;;;;19.75;13.63;;;8.00;68.00;;;;;;5093623;28;20070;-65
2022/01/24 07:47:42;;;;;;;16.80;11.73;;;8.00;68.00;;;;;;5093913;28;20083;-64
2022/01/24 07:50:08;;;;;;;21.05;13.10;;;8.00;68.00;;;;;;5093388;28;20330;-64
2022/01/24 07:52:35;;;;;;;16.73;11.50;;;8.00;67.90;;;;;;5093778;28;20074;-64
2022/01/24 07:55:00;;;;;;;17.90;12.20;;;8.00;67.90;;;;;;5093990;28;20073;-64
2022/01/24 07:57:26;;;;;;;18.55;11.73;;;8.00;67.90;;;;;;5093645;28;20032;-64
2022/01/24 07:59:51;;;;;;;18.65;12.38;;;8.00;67.80;;;;;;5092713;28;20115;-64
2022/01/24 08:02:17;;;;;;;20.13;13.02;;;8.00;67.80;;;;;;5092880;28;20140;-64
2022/01/24 08:04:43;;;;;;;18.77;11.90;;;8.00;67.80;;;;;;5092175;28;20433;-64
2022/01/24 08:07:08;;;;;;;16.15;10.70;;;8.00;67.70;;;;;;5092813;28;20081;-64
2022/01/24 08:09:34;;;;;;;17.52;11.27;;;8.00;67.70;;;;;;5093073;28;20020;-64
2022/01/24 08:12:01;;;;;;;18.70;11.30;;;8.00;67.60;;;;;;5093132;28;20119;-65
2022/01/24 08:14:27;;;;;;;16.98;10.95;;;8.00;67.70;;;;;;5093272;28;20035;-65
2022/01/24 08:16:53;;;;;;;16.05;10.95;;;8.00;67.60;;;;;;5074507;28;20046;-64
2022/01/24 08:19:19;;;;;;;16.42;11.70;;;8.00;67.60;;;;;;5092036;28;20032;-64
2022/01/24 08:21:45;;;;;;;17.02;12.23;;;8.00;67.60;;;;;;5092470;28;20028;-64
2022/01/24 08:24:11;;;;;;;17.10;11.47;;;8.00;67.60;;;;;;5092586;28;20038;-64
2022/01/24 08:26:37;;;;;;;21.08;12.50;;;8.00;67.60;;;;;;5092915;28;20032;-64
2022/01/24 08:29:04;;;;;;;17.20;11.45;;;8.00;67.60;;;;;;5091460;28;20024;-64
2022/01/24 08:31:30;;;;;;;18.20;12.73;;;8.00;67.70;;;;;;5092947;28;20460;-64
2022/01/24 08:33:56;;;;;;;18.08;11.93;;;8.10;67.80;;;;;;5092562;28;20028;-64
2022/01/24 08:36:21;;;;;;;16.25;11.00;;;8.00;67.80;;;;;;5092769;28;20038;-64
2022/01/24 08:38:50;;;;;;;13.55;8.95;;;8.10;67.90;;;;;;5092338;28;20030;-64
2022/01/24 08:41:26;;;;;;;14.40;9.60;;;8.00;67.70;;;;;;5093274;28;20036;-64
2022/01/24 08:43:59;;;;;;;13.52;9.70;;;8.00;67.70;;;;;;5091533;28;20043;-64
2022/01/24 08:46:25;;;;;;;18.70;11.23;;;8.00;67.70;;;;;;5096275;28;20020;-64
2022/01/24 08:48:51;;;;;;;14.35;9.52;;;8.00;67.70;;;;;;5096582;28;20031;-64
2022/01/24 08:51:17;;;;;;;15.57;9.90;;;8.00;67.70;;;;;;5095735;28;20415;-64
2022/01/24 08:53:42;;;;;;;14.73;9.55;;;8.10;67.70;;;;;;5096001;28;20028;-64
2022/01/24 08:56:11;;;;;;;17.13;10.43;;;8.10;67.60;;;;;;5096340;28;20077;-64
2022/01/24 08:58:37;;;;;;;15.93;9.85;;;8.10;67.60;;;;;;5096056;28;20028;-64
2022/01/24 09:01:04;;;;;;;14.10;8.53;;;8.10;67.50;;;;;;5095112;28;20035;-64
2022/01/24 09:03:35;;;;;;;15.40;10.73;;;8.10;67.50;;;;;;5095896;28;20149;-64
2022/01/24 09:06:02;;;;;;;14.80;9.95;;;8.10;67.50;;;;;;5094951;28;20328;-64
2022/01/24 09:08:30;;;;;;;15.37;9.47;;;8.10;68.10;;;;;;5096002;28;20032;-64
2022/01/24 09:10:55;;;;;;;16.33;11.00;;;8.10;67.50;;;;;;5095699;28;21727;-64
2022/01/24 09:13:21;;;;;;;15.70;10.05;;;8.10;67.50;;;;;;5096390;28;20024;-64
2022/01/24 09:15:47;;;;;;;16.83;11.05;;;8.10;67.40;;;;;;5095105;28;20029;-64
2022/01/24 09:18:13;;;;;;;15.77;10.73;;;8.10;67.40;;;;;;5096010;28;20035;-64
2022/01/24 09:20:38;;;;;;;16.25;10.32;;;8.10;67.50;;;;;;5096114;28;20039;-64
2022/01/24 09:23:06;;;;;;;15.27;9.98;;;8.10;67.50;;;;;;5094670;28;20028;-64
2022/01/24 09:25:32;;;;;;;16.08;10.57;;;8.10;67.40;;;;;;5095921;28;20111;-64
2022/01/24 09:27:58;;;;;;;14.97;9.97;;;8.20;67.40;;;;;;5095609;28;20103;-64
2022/01/24 09:30:24;;;;;;;16.08;11.00;;;8.20;67.30;;;;;;5094584;28;20040;-64
2022/01/24 09:32:50;;;;;;;15.43;10.13;;;8.20;67.30;;;;;;5095757;28;20036;-64
2022/01/24 09:35:17;;;;;;;16.33;11.13;;;8.20;67.20;;;;;;5094686;28;20035;-65
2022/01/24 09:37:45;;;;;;;16.35;11.65;;;8.20;67.30;;;;;;5095528;28;20043;-64
2022/01/24 09:40:13;;;;;;;16.65;11.23;;;8.20;67.30;;;;;;5095699;28;20111;-64
2022/01/24 09:42:39;;;;;;;15.40;10.85;;;8.20;67.40;;;;;;5095569;28;20497;-64
2022/01/24 09:45:06;;;;;;;17.73;11.75;;;8.20;67.30;;;;;;5095357;28;20031;-64
2022/01/24 09:47:32;;;;;;;15.68;10.82;;;8.20;67.30;;;;;;5095834;28;20028;-61
2022/01/24 09:49:58;;;;;;;16.70;11.88;;;8.20;67.30;;;;;;5094423;28;20108;-61
2022/01/24 09:52:24;;;;;;;15.70;10.17;;;8.20;67.10;;;;;;5094116;28;20417;-62
2022/01/24 09:54:49;;;;;;;15.75;10.60;;;8.30;67.20;;;;;;5094762;28;20028;-62
2022/01/24 09:57:15;;;;;;;15.48;10.50;;;8.30;67.20;;;;;;5077211;28;20028;-61
2022/01/24 09:59:41;;;;;;;15.02;10.10;;;8.30;67.10;;;;;;5095365;28;20027;-64
2022/01/24 10:02:06;;;;;;;14.57;10.33;;;8.20;67.00;;;;;;5095426;28;20039;-64
2022/01/24 10:04:32;;;;;;;14.07;9.70;;;8.30;67.00;;;;;;5093986;28;20413;-64
2022/01/24 10:07:15;;;;;;;15.03;10.70;;;8.20;66.90;;;;;;5094814;28;20111;-64
2022/01/24 10:09:46;;;;;;;16.53;11.40;;;8.20;66.90;;;;;;5095086;28;20050;-64
2022/01/24 10:17:38;;;;;;;16.33;12.47;;;8.20;66.90;;;;;;5093481;28;20423;-64
2022/01/24 10:20:28;;;;;;;15.57;11.02;;;8.20;66.90;;;;;;5094772;28;20059;-64
2022/01/24 10:23:16;;;;;;;14.95;10.60;;;8.20;66.90;;;;;;5092846;28;20095;-64
2022/01/24 10:26:04;;;;;;;14.63;10.82;;;8.30;66.90;;;;;;5094550;28;20039;-64
2022/01/24 10:28:31;;;;;;;16.57;12.03;;;8.30;66.90;;;;;;5094089;28;20035;-64
2022/01/24 10:31:12;;;;;;;17.65;11.77;;;8.30;66.90;;;;;;5075942;28;20346;-64
2022/01/24 10:34:07;;;;;;;16.47;11.57;;;8.30;66.90;;;;;;5092964;28;20092;-64
2022/01/24 10:36:39;;;;;;;15.07;11.23;;;8.30;66.90;;;;;;5093660;28;20381;-64
2022/01/24 10:39:09;;;;;;;14.32;10.25;;;8.30;66.90;;;;;;5094251;28;20126;-64
2022/01/24 10:41:58;;;;;;;15.88;10.93;;;8.30;66.80;;;;;;5091671;28;20031;-64
2022/01/24 10:44:34;;;;;;;12.97;9.73;;;8.20;66.80;;;;;;5094231;28;20028;-64
2022/01/24 10:47:24;;;;;;;15.07;11.57;;;8.30;66.80;;;;;;5093970;28;20023;-64
2022/01/24 10:49:51;;;;;;;16.17;12.10;;;8.30;66.80;;;;;;5091906;28;20107;-64
2022/01/24 10:52:29;;;;;;;15.80;12.07;;;8.30;66.90;;;;;;5093486;28;20020;-64
2022/01/24 10:55:16;;;;;;;17.58;12.73;;;8.30;66.90;;;;;;5092232;28;20020;-64
2022/01/24 10:57:43;;;;;;;31.20;13.03;;;8.30;66.80;;;;;;5074440;28;20028;-64
2022/01/24 11:00:13;;;;;;;15.20;11.60;;;8.30;66.90;;;;;;5074639;28;20024;-64
2022/01/24 11:02:42;;;;;;;14.82;11.30;;;8.30;66.90;;;;;;5074493;28;20476;-64
2022/01/24 11:05:20;;;;;;;13.32;10.18;;;8.20;66.80;;;;;;5078848;28;20074;-64
2022/01/24 11:08:10;;;;;;;14.67;10.70;;;8.20;66.70;;;;;;5089461;28;20059;-64
2022/01/24 11:10:56;;;;;;;12.43;9.35;;;8.20;66.60;;;;;;5087865;28;20043;-64
2022/01/24 11:13:25;;;;;;;15.30;11.03;;;8.20;66.60;;;;;;5092626;28;20036;-64
2022/01/24 11:15:56;;;;;;;15.03;10.57;;;8.20;66.60;;;;;;5093229;28;20028;-64
2022/01/24 11:18:26;;;;;;;14.80;11.32;;;8.20;66.70;;;;;;5092999;28;20032;-64
2022/01/24 11:21:01;;;;;;;15.98;11.90;;;8.20;66.60;;;;;;5093056;28;20107;-64
2022/01/24 11:23:28;;;;;;;14.80;11.27;;;8.20;66.60;;;;;;5093892;28;20106;-64
2022/01/24 11:26:01;;;;;;;15.77;12.02;;;8.20;66.70;;;;;;5093133;28;20020;-64
2022/01/24 11:28:27;;;;;;;14.40;10.55;;;8.30;66.70;;;;;;5076493;28;20084;-65
2022/01/24 11:31:19;;;;;;;13.82;11.07;;;8.30;66.60;;;;;;5092553;28;20140;-64
2022/01/24 11:33:56;;;;;;;16.50;12.40;;;8.30;66.40;;;;;;5056476;28;20081;-64
2022/01/24 11:36:37;;;;;;;13.52;10.50;;;8.30;66.40;;;;;;5090397;28;20032;-65
2022/01/24 11:39:04;;;;;;;14.93;11.02;;;8.30;66.30;;;;;;5093720;28;20119;-65
2022/01/24 11:41:34;;;;;;;15.63;12.45;;;8.30;66.40;;;;;;5093697;28;20333;-65
2022/01/24 11:44:15;;;;;;;14.80;11.02;;;8.30;66.50;;;;;;5094192;28;20457;-64
2022/01/24 11:46:56;;;;;;;16.43;11.10;;;8.40;66.50;;;;;;5092852;28;20024;-64
2022/01/24 11:49:27;;;;;;;15.43;10.93;;;8.40;66.50;;;;;;5091620;28;20028;-64
2022/01/24 11:52:07;;;;;;;14.52;10.80;;;8.40;66.50;;;;;;5091292;28;20032;-64
2022/01/24 11:57:22;;;;;;;14.82;11.95;;;8.40;66.40;;;;;;5093526;28;20028;-64
2022/01/24 11:59:49;;;;;;;14.63;11.43;;;8.40;66.40;;;;;;5093451;28;20479;-65
2022/01/24 12:02:22;;;;;;;15.00;11.43;;;8.40;66.30;;;;;;5093474;28;20417;-64
2022/01/24 12:04:55;;;;;;;14.68;11.13;;;8.40;66.30;;;;;;5093428;28;20024;-64
2022/01/24 12:07:26;;;;;;;15.90;12.07;;;8.40;66.20;;;;;;5093237;28;20036;-64
2022/01/24 12:09:53;;;;;;;13.13;10.20;;;8.40;66.30;;;;;;5093862;28;20043;-65
2022/01/24 12:12:49;;;;;;;15.50;11.57;;;8.40;66.30;;;;;;5092418;28;20100;-64
2022/01/24 12:15:52;;;;;;;16.88;11.88;;;8.40;66.30;;;;;;5093874;28;20044;-64
2022/01/24 12:18:45;;;;;;;20.40;12.43;;;8.40;66.30;;;;;;5093622;28;20042;-63
2022/01/24 12:21:12;;;;;;;15.50;10.68;;;8.40;66.40;;;;;;5093561;28;20028;-62
2022/01/24 12:23:43;;;;;;;14.60;10.63;;;8.40;66.40;;;;;;5096439;28;20444;-63
2022/01/24 12:26:14;;;;;;;16.77;13.25;;;8.40;66.40;;;;;;5098362;28;20028;-62
2022/01/24 12:28:43;;;;;;;14.77;11.32;;;8.40;66.40;;;;;;5097193;28;20364;-63
2022/01/24 12:31:13;;;;;;;17.45;12.32;;;8.40;66.40;;;;;;5095252;28;20369;-63
2022/01/24 12:33:50;;;;;;;16.30;13.35;;;8.40;66.40;;;;;;5097451;28;20084;-62
2022/01/24 12:36:36;;;;;;;17.38;13.45;;;8.40;66.40;;;;;;5098289;28;20050;-63
2022/01/24 12:39:09;;;;;;;16.63;12.32;;;8.40;66.30;;;;;;5096161;28;20046;-63
2022/01/24 12:41:40;;;;;;;15.07;10.68;;;8.40;66.30;;;;;;5097738;28;20046;-63
2022/01/24 12:46:33;;;;;;;14.93;11.50;;;8.40;66.30;;;;;;5097334;28;20032;-64
2022/01/24 12:49:03;;;;;;;16.70;12.70;;;8.40;66.20;;;;;;5096710;28;20432;-63
2022/01/24 12:51:31;;;;;;;16.33;12.05;;;8.40;66.20;;;;;;5096404;28;20028;-63
2022/01/24 12:53:57;;;;;;;22.85;13.20;;;8.40;66.20;;;;;;5096458;28;20032;-63
2022/01/24 12:56:28;;;;;;;17.50;13.30;;;8.50;66.30;;;;;;5096348;28;20387;-63
2022/01/24 12:58:55;;;;;;;16.88;12.65;;;8.50;66.30;;;;;;5113746;28;20028;-63
2022/01/24 13:01:29;;;;;;;16.05;12.18;;;8.50;66.30;;;;;;5096865;28;20043;-63
2022/01/24 13:04:08;;;;;;;16.92;11.73;;;8.50;66.20;;;;;;5097328;28;20032;-63
2022/01/24 13:06:36;;;;;;;17.30;12.73;;;8.50;66.10;;;;;;5079342;28;20036;-63
2022/01/24 13:09:15;;;;;;;13.88;11.45;;;8.50;66.10;;;;;;5096518;28;20088;-63
2022/01/24 13:12:00;;;;;;;14.87;11.73;;;8.50;66.00;;;;;;5097001;28;20036;-63
2022/01/24 13:14:43;;;;;;;14.70;11.80;;;8.40;65.90;;;;;;5096975;28;20042;-63
2022/01/24 13:25:16;;;;;;;16.90;13.47;;;8.40;66.00;;;;;;5094081;28;20028;-63
2022/01/24 13:27:48;;;;;;;19.13;13.25;;;8.40;66.00;;;;;;5097630;28;20016;-63
2022/01/24 13:30:30;;;;;;;17.48;13.18;;;8.40;66.00;;;;;;5095877;28;20060;-63
2022/01/24 13:33:00;;;;;;;15.23;11.82;;;8.50;66.00;;;;;;5095933;28;20034;-63
2022/01/24 13:35:36;;;;;;;14.30;12.10;;;8.50;66.00;;;;;;5095516;28;20036;-64
2022/01/24 13:38:11;;;;;;;14.60;12.43;;;8.50;65.80;;;;;;5096648;28;20081;-64
2022/01/24 13:40:54;;;;;;;16.63;13.00;;;8.50;65.80;;;;;;5095254;28;20044;-64
2022/01/24 13:43:44;;;;;;;14.85;11.85;;;8.50;65.70;;;;;;5096775;28;20039;-64
2022/01/24 13:46:12;;;;;;;19.27;13.43;;;8.50;65.60;;;;;;5096228;28;20088;-64
2022/01/24 13:48:42;;;;;;;17.63;13.38;;;8.50;65.70;;;;;;5096263;28;20089;-64
2022/01/24 13:51:08;;;;;;;15.68;13.50;;;8.60;65.70;;;;;;5096653;28;20365;-64
2022/01/24 13:53:43;;;;;;;16.83;12.82;;;8.50;65.70;;;;;;5095638;28;20036;-64
2022/01/24 13:56:29;;;;;;;16.90;14.30;;;8.50;65.60;;;;;;5095782;28;20075;-64
2022/01/24 13:59:14;;;;;;;18.38;14.48;;;8.60;65.60;;;;;;5094749;28;20024;-64
2022/01/24 14:01:55;;;;;;;18.10;13.98;;;8.60;65.70;;;;;;5093060;28;20032;-64
2022/01/24 14:04:27;;;;;;;19.15;14.32;;;8.60;65.70;;;;;;5083609;28;20085;-64
2022/01/24 14:06:56;;;;;;;18.10;13.57;;;8.60;65.70;;;;;;5095822;28;20502;-64
2022/01/24 14:09:33;;;;;;;19.42;15.23;;;8.60;65.70;;;;;;5096172;28;20024;-63
2022/01/24 14:11:59;;;;;;;17.33;13.50;;;8.60;65.60;;;;;;5094763;28;20059;-64
2022/01/24 14:14:36;;;;;;;17.45;15.02;;;8.60;65.60;;;;;;5095454;28;20047;-64
2022/01/24 14:17:39;;;;;;;17.95;13.93;;;8.60;65.60;;;;;;5094463;28;20433;-64
2022/01/24 14:19:55;;;;;;;15.57;12.95;;;8.60;65.60;;;;;;5094496;28;20075;-63
2022/01/24 14:22:22;;;;;;;18.40;14.48;;;8.60;65.60;;;;;;5077787;28;20024;-63
2022/01/24 14:24:56;;;;;;;21.00;16.20;;;8.60;65.60;;;;;;5093656;28;20024;-64
2022/01/24 14:27:45;;;;;;;20.05;16.25;;;8.60;65.60;;;;;;5088275;28;20035;-64
2022/01/24 14:30:15;;;;;;;19.02;15.88;;;8.60;65.70;;;;;;5110326;28;20346;-66
2022/01/24 14:33:12;;;;;;;20.02;15.48;;;8.60;65.80;;;;;;5093201;28;20028;-64
2022/01/24 14:36:01;;;;;;;20.27;17.08;;;8.60;65.60;;;;;;5094045;28;20089;-64
2022/01/24 14:38:37;;;;;;;17.25;14.38;;;8.70;65.70;;;;;;5094275;28;20042;-63
2022/01/24 14:41:10;;;;;;;21.05;16.60;;;8.60;65.70;;;;;;5093907;28;20028;-64
2022/01/24 14:46:26;;;;;;;20.88;15.85;;;8.60;65.70;;;;;;5094118;28;20417;-64
2022/01/24 14:48:51;;;;;;;23.20;18.13;;;8.60;65.80;;;;;;5093789;28;20031;-64
2022/01/24 14:51:24;;;;;;;19.65;16.30;;;8.60;65.80;;;;;;5093791;28;20028;-64